sensor_id;sensor_type;location;lat;lon;timestamp;P1;durP1;ratioP1;P2;durP2;ratioP2
18929;SDS011;43305;52.186;5.598;2024-01-07T00:00:28;30.75;;;15.32;;
18929;SDS011;43305;52.186;5.598;2024-01-07T00:02:58;29.77;;;14.82;;
18929;SDS011;43305;52.186;5.598;2024-01-07T00:05:25;32.03;;;15.70;;
18929;SDS011;43305;52.186;5.598;2024-01-07T00:07:52;30.17;;;15.27;;
18929;SDS011;43305;52.186;5.598;2024-01-07T00:10:19;26.95;;;14.77;;
18929;SDS011;43305;52.186;5.598;2024-01-07T00:12:46;30.52;;;16.02;;
18929;SDS011;43305;52.186;5.598;2024-01-07T00:15:14;29.50;;;14.57;;
18929;SDS011;43305;52.186;5.598;2024-01-07T00:17:41;32.72;;;15.82;;
18929;SDS011;43305;52.186;5.598;2024-01-07T00:20:09;28.42;;;15.70;;
18929;SDS011;43305;52.186;5.598;2024-01-07T00:22:37;33.10;;;15.30;;
18929;SDS011;43305;52.186;5.598;2024-01-07T00:25:04;26.83;;;14.45;;
18929;SDS011;43305;52.186;5.598;2024-01-07T00:27:31;33.10;;;15.30;;
18929;SDS011;43305;52.186;5.598;2024-01-07T00:29:58;36.75;;;16.90;;
18929;SDS011;43305;52.186;5.598;2024-01-07T00:32:26;32.28;;;16.40;;
18929;SDS011;43305;52.186;5.598;2024-01-07T00:34:53;31.75;;;16.17;;
18929;SDS011;43305;52.186;5.598;2024-01-07T00:37:19;33.33;;;16.20;;
18929;SDS011;43305;52.186;5.598;2024-01-07T00:39:46;32.92;;;16.58;;
18929;SDS011;43305;52.186;5.598;2024-01-07T00:42:13;32.15;;;16.33;;
18929;SDS011;43305;52.186;5.598;2024-01-07T00:44:40;32.42;;;16.15;;
18929;SDS011;43305;52.186;5.598;2024-01-07T00:47:07;32.53;;;17.00;;
18929;SDS011;43305;52.186;5.598;2024-01-07T00:49:35;35.72;;;18.08;;
18929;SDS011;43305;52.186;5.598;2024-01-07T00:52:02;34.25;;;18.60;;
18929;SDS011;43305;52.186;5.598;2024-01-07T00:54:29;35.22;;;17.60;;
18929;SDS011;43305;52.186;5.598;2024-01-07T00:56:56;37.22;;;19.52;;
18929;SDS011;43305;52.186;5.598;2024-01-07T00:59:23;37.03;;;18.92;;
18929;SDS011;43305;52.186;5.598;2024-01-07T01:01:50;40.13;;;18.88;;
18929;SDS011;43305;52.186;5.598;2024-01-07T01:04:17;36.67;;;19.00;;
18929;SDS011;43305;52.186;5.598;2024-01-07T01:06:46;39.05;;;19.42;;
18929;SDS011;43305;52.186;5.598;2024-01-07T01:09:13;42.88;;;19.48;;
18929;SDS011;43305;52.186;5.598;2024-01-07T01:11:40;39.13;;;19.45;;
18929;SDS011;43305;52.186;5.598;2024-01-07T01:14:06;40.83;;;19.65;;
18929;SDS011;43305;52.186;5.598;2024-01-07T01:16:33;39.33;;;19.83;;
18929;SDS011;43305;52.186;5.598;2024-01-07T01:19:03;36.67;;;19.75;;
18929;SDS011;43305;52.186;5.598;2024-01-07T01:21:31;40.50;;;19.42;;
18929;SDS011;43305;52.186;5.598;2024-01-07T01:23:59;39.72;;;19.10;;
18929;SDS011;43305;52.186;5.598;2024-01-07T01:26:28;40.42;;;19.48;;
18929;SDS011;43305;52.186;5.598;2024-01-07T01:28:55;34.35;;;18.63;;
18929;SDS011;43305;52.186;5.598;2024-01-07T01:31:22;39.40;;;19.48;;
18929;SDS011;43305;52.186;5.598;2024-01-07T01:33:48;40.05;;;19.70;;
18929;SDS011;43305;52.186;5.598;2024-01-07T01:36:15;38.78;;;19.77;;
18929;SDS011;43305;52.186;5.598;2024-01-07T01:38:42;37.22;;;18.75;;
18929;SDS011;43305;52.186;5.598;2024-01-07T01:41:11;38.08;;;19.60;;
18929;SDS011;43305;52.186;5.598;2024-01-07T01:43:38;42.33;;;20.15;;
18929;SDS011;43305;52.186;5.598;2024-01-07T01:46:04;38.45;;;19.08;;
18929;SDS011;43305;52.186;5.598;2024-01-07T01:48:31;37.05;;;19.98;;
18929;SDS011;43305;52.186;5.598;2024-01-07T01:50:59;37.20;;;19.17;;
18929;SDS011;43305;52.186;5.598;2024-01-07T01:53:26;37.13;;;19.55;;
18929;SDS011;43305;52.186;5.598;2024-01-07T01:55:54;37.60;;;18.75;;
18929;SDS011;43305;52.186;5.598;2024-01-07T01:58:24;36.65;;;19.33;;
18929;SDS011;43305;52.186;5.598;2024-01-07T02:00:52;38.90;;;19.65;;
18929;SDS011;43305;52.186;5.598;2024-01-07T02:03:21;38.70;;;19.58;;
18929;SDS011;43305;52.186;5.598;2024-01-07T02:05:48;38.33;;;18.85;;
18929;SDS011;43305;52.186;5.598;2024-01-07T02:08:15;40.63;;;19.52;;
18929;SDS011;43305;52.186;5.598;2024-01-07T02:10:43;34.55;;;19.40;;
18929;SDS011;43305;52.186;5.598;2024-01-07T02:13:10;39.58;;;19.63;;
18929;SDS011;43305;52.186;5.598;2024-01-07T02:15:38;39.17;;;20.20;;
18929;SDS011;43305;52.186;5.598;2024-01-07T02:18:05;38.10;;;19.63;;
18929;SDS011;43305;52.186;5.598;2024-01-07T02:20:32;38.58;;;20.05;;
18929;SDS011;43305;52.186;5.598;2024-01-07T02:23:01;41.13;;;21.00;;
18929;SDS011;43305;52.186;5.598;2024-01-07T02:25:33;43.30;;;20.70;;
18929;SDS011;43305;52.186;5.598;2024-01-07T02:28:01;38.65;;;19.65;;
18929;SDS011;43305;52.186;5.598;2024-01-07T02:30:28;40.70;;;20.65;;
18929;SDS011;43305;52.186;5.598;2024-01-07T02:32:55;37.90;;;20.27;;
18929;SDS011;43305;52.186;5.598;2024-01-07T02:35:22;41.38;;;19.85;;
18929;SDS011;43305;52.186;5.598;2024-01-07T02:37:48;39.03;;;20.27;;
18929;SDS011;43305;52.186;5.598;2024-01-07T02:40:15;37.08;;;19.80;;
18929;SDS011;43305;52.186;5.598;2024-01-07T02:42:43;36.83;;;19.33;;
18929;SDS011;43305;52.186;5.598;2024-01-07T02:45:10;38.20;;;20.13;;
18929;SDS011;43305;52.186;5.598;2024-01-07T02:47:37;37.40;;;18.55;;
18929;SDS011;43305;52.186;5.598;2024-01-07T02:50:04;37.03;;;19.35;;
18929;SDS011;43305;52.186;5.598;2024-01-07T02:52:32;42.55;;;19.58;;
18929;SDS011;43305;52.186;5.598;2024-01-07T02:54:59;39.30;;;20.33;;
18929;SDS011;43305;52.186;5.598;2024-01-07T02:57:27;39.05;;;19.35;;
18929;SDS011;43305;52.186;5.598;2024-01-07T02:59:55;37.65;;;19.90;;
18929;SDS011;43305;52.186;5.598;2024-01-07T03:02:22;41.35;;;19.67;;
18929;SDS011;43305;52.186;5.598;2024-01-07T03:04:49;37.72;;;19.55;;
18929;SDS011;43305;52.186;5.598;2024-01-07T03:07:16;37.58;;;19.58;;
18929;SDS011;43305;52.186;5.598;2024-01-07T03:09:43;43.65;;;20.42;;
18929;SDS011;43305;52.186;5.598;2024-01-07T03:12:10;37.60;;;19.70;;
18929;SDS011;43305;52.186;5.598;2024-01-07T03:14:37;45.30;;;21.73;;
18929;SDS011;43305;52.186;5.598;2024-01-07T03:17:05;43.85;;;20.80;;
18929;SDS011;43305;52.186;5.598;2024-01-07T03:19:32;41.72;;;20.95;;
18929;SDS011;43305;52.186;5.598;2024-01-07T03:21:59;39.55;;;20.17;;
18929;SDS011;43305;52.186;5.598;2024-01-07T03:24:26;41.45;;;21.33;;
18929;SDS011;43305;52.186;5.598;2024-01-07T03:26:53;42.67;;;22.45;;
18929;SDS011;43305;52.186;5.598;2024-01-07T03:29:20;42.08;;;20.08;;
18929;SDS011;43305;52.186;5.598;2024-01-07T03:31:47;45.28;;;22.33;;
18929;SDS011;43305;52.186;5.598;2024-01-07T03:34:15;45.25;;;21.20;;
18929;SDS011;43305;52.186;5.598;2024-01-07T03:36:42;43.63;;;22.02;;
18929;SDS011;43305;52.186;5.598;2024-01-07T03:39:08;43.47;;;22.15;;
18929;SDS011;43305;52.186;5.598;2024-01-07T03:41:35;42.15;;;21.58;;
18929;SDS011;43305;52.186;5.598;2024-01-07T03:44:02;44.47;;;20.30;;
18929;SDS011;43305;52.186;5.598;2024-01-07T03:46:29;43.15;;;21.17;;
18929;SDS011;43305;52.186;5.598;2024-01-07T03:48:57;44.08;;;21.77;;
18929;SDS011;43305;52.186;5.598;2024-01-07T03:51:25;42.17;;;21.55;;
18929;SDS011;43305;52.186;5.598;2024-01-07T03:53:52;43.72;;;21.92;;
18929;SDS011;43305;52.186;5.598;2024-01-07T03:56:19;44.70;;;22.52;;
18929;SDS011;43305;52.186;5.598;2024-01-07T03:58:46;41.50;;;21.05;;
18929;SDS011;43305;52.186;5.598;2024-01-07T04:01:15;42.97;;;22.27;;
18929;SDS011;43305;52.186;5.598;2024-01-07T04:03:44;43.10;;;21.48;;
18929;SDS011;43305;52.186;5.598;2024-01-07T04:06:11;42.58;;;21.35;;
18929;SDS011;43305;52.186;5.598;2024-01-07T04:08:40;44.72;;;21.98;;
18929;SDS011;43305;52.186;5.598;2024-01-07T04:11:06;43.67;;;21.50;;
18929;SDS011;43305;52.186;5.598;2024-01-07T04:13:33;36.40;;;19.63;;
18929;SDS011;43305;52.186;5.598;2024-01-07T04:16:03;41.17;;;20.35;;
18929;SDS011;43305;52.186;5.598;2024-01-07T04:18:33;36.25;;;18.70;;
18929;SDS011;43305;52.186;5.598;2024-01-07T04:21:03;37.28;;;19.23;;
18929;SDS011;43305;52.186;5.598;2024-01-07T04:23:30;37.50;;;18.60;;
18929;SDS011;43305;52.186;5.598;2024-01-07T04:25:59;35.38;;;18.15;;
18929;SDS011;43305;52.186;5.598;2024-01-07T04:28:26;34.00;;;18.98;;
18929;SDS011;43305;52.186;5.598;2024-01-07T04:30:53;33.65;;;17.98;;
18929;SDS011;43305;52.186;5.598;2024-01-07T04:33:20;32.67;;;17.27;;
18929;SDS011;43305;52.186;5.598;2024-01-07T04:35:47;32.83;;;17.83;;
18929;SDS011;43305;52.186;5.598;2024-01-07T04:38:14;34.20;;;17.20;;
18929;SDS011;43305;52.186;5.598;2024-01-07T04:40:40;30.30;;;16.77;;
18929;SDS011;43305;52.186;5.598;2024-01-07T04:43:09;32.25;;;16.83;;
18929;SDS011;43305;52.186;5.598;2024-01-07T04:45:35;29.42;;;16.45;;
18929;SDS011;43305;52.186;5.598;2024-01-07T04:48:02;29.40;;;15.85;;
18929;SDS011;43305;52.186;5.598;2024-01-07T04:50:30;26.35;;;15.07;;
18929;SDS011;43305;52.186;5.598;2024-01-07T04:52:59;28.58;;;14.23;;
18929;SDS011;43305;52.186;5.598;2024-01-07T04:55:30;26.23;;;14.43;;
18929;SDS011;43305;52.186;5.598;2024-01-07T04:58:03;25.15;;;14.50;;
18929;SDS011;43305;52.186;5.598;2024-01-07T05:00:32;26.25;;;13.80;;
18929;SDS011;43305;52.186;5.598;2024-01-07T05:02:59;25.98;;;14.05;;
18929;SDS011;43305;52.186;5.598;2024-01-07T05:05:29;22.85;;;13.20;;
18929;SDS011;43305;52.186;5.598;2024-01-07T05:07:56;28.05;;;14.10;;
18929;SDS011;43305;52.186;5.598;2024-01-07T05:10:26;24.90;;;14.18;;
18929;SDS011;43305;52.186;5.598;2024-01-07T05:12:53;23.30;;;13.07;;
18929;SDS011;43305;52.186;5.598;2024-01-07T05:15:19;24.23;;;14.05;;
18929;SDS011;43305;52.186;5.598;2024-01-07T05:17:48;24.13;;;13.45;;
18929;SDS011;43305;52.186;5.598;2024-01-07T05:20:15;26.13;;;14.30;;
18929;SDS011;43305;52.186;5.598;2024-01-07T05:22:42;23.85;;;13.75;;
18929;SDS011;43305;52.186;5.598;2024-01-07T05:25:09;24.25;;;12.80;;
18929;SDS011;43305;52.186;5.598;2024-01-07T05:27:35;22.90;;;12.98;;
18929;SDS011;43305;52.186;5.598;2024-01-07T05:30:03;20.90;;;12.05;;
18929;SDS011;43305;52.186;5.598;2024-01-07T05:32:34;19.90;;;11.73;;
18929;SDS011;43305;52.186;5.598;2024-01-07T05:35:03;21.75;;;11.65;;
18929;SDS011;43305;52.186;5.598;2024-01-07T05:37:31;21.27;;;11.60;;
18929;SDS011;43305;52.186;5.598;2024-01-07T05:39:58;24.40;;;13.23;;
18929;SDS011;43305;52.186;5.598;2024-01-07T05:42:25;21.52;;;12.00;;
18929;SDS011;43305;52.186;5.598;2024-01-07T05:44:52;21.05;;;11.65;;
18929;SDS011;43305;52.186;5.598;2024-01-07T05:47:18;20.92;;;12.60;;
18929;SDS011;43305;52.186;5.598;2024-01-07T05:49:45;22.65;;;12.30;;
18929;SDS011;43305;52.186;5.598;2024-01-07T05:52:13;24.95;;;14.15;;
18929;SDS011;43305;52.186;5.598;2024-01-07T05:54:40;25.73;;;14.48;;
18929;SDS011;43305;52.186;5.598;2024-01-07T05:57:07;25.35;;;14.68;;
18929;SDS011;43305;52.186;5.598;2024-01-07T05:59:34;24.88;;;14.13;;
18929;SDS011;43305;52.186;5.598;2024-01-07T06:02:01;25.67;;;14.40;;
18929;SDS011;43305;52.186;5.598;2024-01-07T06:04:28;26.73;;;16.00;;
18929;SDS011;43305;52.186;5.598;2024-01-07T06:06:55;25.20;;;13.63;;
18929;SDS011;43305;52.186;5.598;2024-01-07T06:09:23;23.02;;;13.52;;
18929;SDS011;43305;52.186;5.598;2024-01-07T06:11:51;23.38;;;13.48;;
18929;SDS011;43305;52.186;5.598;2024-01-07T06:14:17;22.00;;;12.73;;
18929;SDS011;43305;52.186;5.598;2024-01-07T06:16:44;21.83;;;12.68;;
18929;SDS011;43305;52.186;5.598;2024-01-07T06:19:11;21.63;;;12.30;;
18929;SDS011;43305;52.186;5.598;2024-01-07T06:21:39;21.50;;;12.23;;
18929;SDS011;43305;52.186;5.598;2024-01-07T06:24:07;19.27;;;11.70;;
18929;SDS011;43305;52.186;5.598;2024-01-07T06:26:35;20.65;;;12.05;;
18929;SDS011;43305;52.186;5.598;2024-01-07T06:29:02;19.48;;;11.98;;
18929;SDS011;43305;52.186;5.598;2024-01-07T06:31:29;22.13;;;12.40;;
18929;SDS011;43305;52.186;5.598;2024-01-07T06:33:56;20.42;;;12.38;;
18929;SDS011;43305;52.186;5.598;2024-01-07T06:36:25;21.00;;;11.88;;
18929;SDS011;43305;52.186;5.598;2024-01-07T06:38:52;23.23;;;12.88;;
18929;SDS011;43305;52.186;5.598;2024-01-07T06:41:19;22.33;;;12.75;;
18929;SDS011;43305;52.186;5.598;2024-01-07T06:43:47;22.20;;;12.63;;
18929;SDS011;43305;52.186;5.598;2024-01-07T06:46:15;22.55;;;12.38;;
18929;SDS011;43305;52.186;5.598;2024-01-07T06:48:41;24.20;;;13.02;;
18929;SDS011;43305;52.186;5.598;2024-01-07T06:51:10;23.75;;;13.85;;
18929;SDS011;43305;52.186;5.598;2024-01-07T06:53:37;23.38;;;13.13;;
18929;SDS011;43305;52.186;5.598;2024-01-07T06:56:05;23.90;;;13.23;;
18929;SDS011;43305;52.186;5.598;2024-01-07T06:58:32;25.20;;;14.00;;
18929;SDS011;43305;52.186;5.598;2024-01-07T07:01:02;23.70;;;13.35;;
18929;SDS011;43305;52.186;5.598;2024-01-07T07:03:32;27.45;;;14.60;;
18929;SDS011;43305;52.186;5.598;2024-01-07T07:05:59;24.45;;;13.45;;
18929;SDS011;43305;52.186;5.598;2024-01-07T07:08:26;23.17;;;14.00;;
18929;SDS011;43305;52.186;5.598;2024-01-07T07:10:53;26.13;;;14.30;;
18929;SDS011;43305;52.186;5.598;2024-01-07T07:13:20;23.75;;;13.85;;
18929;SDS011;43305;52.186;5.598;2024-01-07T07:15:47;23.63;;;13.52;;
18929;SDS011;43305;52.186;5.598;2024-01-07T07:18:15;23.15;;;14.35;;
18929;SDS011;43305;52.186;5.598;2024-01-07T07:20:42;23.85;;;12.85;;
18929;SDS011;43305;52.186;5.598;2024-01-07T07:23:09;27.77;;;14.18;;
18929;SDS011;43305;52.186;5.598;2024-01-07T07:25:35;21.70;;;12.90;;
18929;SDS011;43305;52.186;5.598;2024-01-07T07:28:02;23.35;;;13.48;;
18929;SDS011;43305;52.186;5.598;2024-01-07T07:30:30;22.65;;;13.10;;
18929;SDS011;43305;52.186;5.598;2024-01-07T07:32:58;24.73;;;13.52;;
18929;SDS011;43305;52.186;5.598;2024-01-07T07:35:26;22.15;;;13.15;;
18929;SDS011;43305;52.186;5.598;2024-01-07T07:37:53;21.33;;;11.95;;
18929;SDS011;43305;52.186;5.598;2024-01-07T07:40:20;21.92;;;12.52;;
18929;SDS011;43305;52.186;5.598;2024-01-07T07:42:47;18.98;;;11.65;;
18929;SDS011;43305;52.186;5.598;2024-01-07T07:45:14;21.15;;;12.52;;
18929;SDS011;43305;52.186;5.598;2024-01-07T07:47:41;23.02;;;13.63;;
18929;SDS011;43305;52.186;5.598;2024-01-07T07:50:10;18.00;;;11.48;;
18929;SDS011;43305;52.186;5.598;2024-01-07T07:52:38;21.02;;;10.95;;
18929;SDS011;43305;52.186;5.598;2024-01-07T07:55:05;16.90;;;10.60;;
18929;SDS011;43305;52.186;5.598;2024-01-07T07:57:33;16.52;;;9.82;;
18929;SDS011;43305;52.186;5.598;2024-01-07T07:59:59;16.67;;;9.73;;
18929;SDS011;43305;52.186;5.598;2024-01-07T08:02:27;18.70;;;11.20;;
18929;SDS011;43305;52.186;5.598;2024-01-07T08:04:54;19.33;;;10.05;;
18929;SDS011;43305;52.186;5.598;2024-01-07T08:07:20;17.80;;;10.57;;
18929;SDS011;43305;52.186;5.598;2024-01-07T08:09:49;16.95;;;10.98;;
18929;SDS011;43305;52.186;5.598;2024-01-07T08:12:16;17.77;;;10.45;;
18929;SDS011;43305;52.186;5.598;2024-01-07T08:14:42;17.92;;;11.52;;
18929;SDS011;43305;52.186;5.598;2024-01-07T08:17:12;16.25;;;10.45;;
18929;SDS011;43305;52.186;5.598;2024-01-07T08:19:39;15.85;;;10.30;;
18929;SDS011;43305;52.186;5.598;2024-01-07T08:22:06;17.85;;;10.38;;
18929;SDS011;43305;52.186;5.598;2024-01-07T08:24:34;16.92;;;11.20;;
18929;SDS011;43305;52.186;5.598;2024-01-07T08:27:03;19.58;;;11.68;;
18929;SDS011;43305;52.186;5.598;2024-01-07T08:29:33;18.02;;;11.32;;
18929;SDS011;43305;52.186;5.598;2024-01-07T08:32:04;20.35;;;12.10;;
18929;SDS011;43305;52.186;5.598;2024-01-07T08:34:34;18.25;;;12.38;;
18929;SDS011;43305;52.186;5.598;2024-01-07T08:37:04;23.38;;;13.98;;
18929;SDS011;43305;52.186;5.598;2024-01-07T08:39:33;16.65;;;10.38;;
18929;SDS011;43305;52.186;5.598;2024-01-07T08:42:05;16.85;;;9.18;;
18929;SDS011;43305;52.186;5.598;2024-01-07T08:44:31;27.65;;;16.75;;
18929;SDS011;43305;52.186;5.598;2024-01-07T08:46:58;16.90;;;10.63;;
18929;SDS011;43305;52.186;5.598;2024-01-07T08:49:27;14.63;;;8.98;;
18929;SDS011;43305;52.186;5.598;2024-01-07T08:51:54;15.50;;;9.05;;
18929;SDS011;43305;52.186;5.598;2024-01-07T08:54:22;15.88;;;9.10;;
18929;SDS011;43305;52.186;5.598;2024-01-07T08:56:49;18.88;;;9.85;;
18929;SDS011;43305;52.186;5.598;2024-01-07T08:59:17;16.23;;;9.65;;
18929;SDS011;43305;52.186;5.598;2024-01-07T09:01:44;16.50;;;9.60;;
18929;SDS011;43305;52.186;5.598;2024-01-07T09:04:11;17.42;;;9.48;;
18929;SDS011;43305;52.186;5.598;2024-01-07T09:06:38;18.10;;;10.48;;
18929;SDS011;43305;52.186;5.598;2024-01-07T09:09:05;22.83;;;10.98;;
18929;SDS011;43305;52.186;5.598;2024-01-07T09:11:33;18.35;;;10.18;;
18929;SDS011;43305;52.186;5.598;2024-01-07T09:14:04;17.45;;;9.18;;
18929;SDS011;43305;52.186;5.598;2024-01-07T09:16:32;18.38;;;10.27;;
18929;SDS011;43305;52.186;5.598;2024-01-07T09:18:59;18.00;;;9.38;;
18929;SDS011;43305;52.186;5.598;2024-01-07T09:21:29;19.92;;;9.85;;
18929;SDS011;43305;52.186;5.598;2024-01-07T09:23:59;18.13;;;8.40;;
18929;SDS011;43305;52.186;5.598;2024-01-07T09:26:26;16.98;;;8.63;;
18929;SDS011;43305;52.186;5.598;2024-01-07T09:28:53;15.15;;;8.30;;
18929;SDS011;43305;52.186;5.598;2024-01-07T09:31:20;13.70;;;7.40;;
18929;SDS011;43305;52.186;5.598;2024-01-07T09:33:48;13.80;;;7.47;;
18929;SDS011;43305;52.186;5.598;2024-01-07T09:36:15;18.20;;;8.77;;
18929;SDS011;43305;52.186;5.598;2024-01-07T09:38:42;13.40;;;6.88;;
18929;SDS011;43305;52.186;5.598;2024-01-07T09:41:11;13.85;;;7.07;;
18929;SDS011;43305;52.186;5.598;2024-01-07T09:43:38;19.52;;;9.18;;
18929;SDS011;43305;52.186;5.598;2024-01-07T09:46:05;14.02;;;7.50;;
18929;SDS011;43305;52.186;5.598;2024-01-07T09:48:32;14.32;;;6.47;;
18929;SDS011;43305;52.186;5.598;2024-01-07T09:51:01;11.30;;;4.90;;
18929;SDS011;43305;52.186;5.598;2024-01-07T09:53:30;11.45;;;5.03;;
18929;SDS011;43305;52.186;5.598;2024-01-07T09:56:05;36.50;;;9.90;;
18929;SDS011;43305;52.186;5.598;2024-01-07T09:58:38;11.90;;;5.80;;
18929;SDS011;43305;52.186;5.598;2024-01-07T10:01:07;10.35;;;5.03;;
18929;SDS011;43305;52.186;5.598;2024-01-07T10:03:34;9.88;;;4.70;;
18929;SDS011;43305;52.186;5.598;2024-01-07T10:06:05;9.75;;;4.90;;
18929;SDS011;43305;52.186;5.598;2024-01-07T10:08:32;8.48;;;4.70;;
18929;SDS011;43305;52.186;5.598;2024-01-07T10:10:59;7.45;;;4.28;;
18929;SDS011;43305;52.186;5.598;2024-01-07T10:13:28;8.52;;;4.18;;
18929;SDS011;43305;52.186;5.598;2024-01-07T10:15:55;7.13;;;4.18;;
18929;SDS011;43305;52.186;5.598;2024-01-07T10:18:22;9.95;;;4.10;;
18929;SDS011;43305;52.186;5.598;2024-01-07T10:20:49;11.07;;;4.75;;
18929;SDS011;43305;52.186;5.598;2024-01-07T10:23:21;6.35;;;3.92;;
18929;SDS011;43305;52.186;5.598;2024-01-07T10:25:47;7.88;;;3.78;;
18929;SDS011;43305;52.186;5.598;2024-01-07T10:28:14;6.65;;;3.50;;
18929;SDS011;43305;52.186;5.598;2024-01-07T10:30:42;6.57;;;3.35;;
18929;SDS011;43305;52.186;5.598;2024-01-07T10:33:16;8.95;;;3.78;;
18929;SDS011;43305;52.186;5.598;2024-01-07T10:35:44;7.72;;;4.40;;
18929;SDS011;43305;52.186;5.598;2024-01-07T10:38:14;8.65;;;4.88;;
18929;SDS011;43305;52.186;5.598;2024-01-07T10:40:42;11.57;;;5.70;;
18929;SDS011;43305;52.186;5.598;2024-01-07T10:43:12;6.47;;;3.70;;
18929;SDS011;43305;52.186;5.598;2024-01-07T10:45:41;11.02;;;5.25;;
18929;SDS011;43305;52.186;5.598;2024-01-07T10:48:11;5.50;;;3.40;;
18929;SDS011;43305;52.186;5.598;2024-01-07T10:50:40;6.00;;;3.65;;
18929;SDS011;43305;52.186;5.598;2024-01-07T10:53:08;6.50;;;3.30;;
18929;SDS011;43305;52.186;5.598;2024-01-07T10:55:39;7.60;;;3.28;;
18929;SDS011;43305;52.186;5.598;2024-01-07T10:58:14;6.25;;;3.58;;
18929;SDS011;43305;52.186;5.598;2024-01-07T11:00:46;5.97;;;3.35;;
18929;SDS011;43305;52.186;5.598;2024-01-07T11:03:14;5.22;;;2.88;;
18929;SDS011;43305;52.186;5.598;2024-01-07T11:05:48;6.68;;;3.35;;
18929;SDS011;43305;52.186;5.598;2024-01-07T11:08:22;4.88;;;2.67;;
18929;SDS011;43305;52.186;5.598;2024-01-07T11:10:57;3.40;;;2.40;;
18929;SDS011;43305;52.186;5.598;2024-01-07T11:13:32;4.72;;;2.60;;
18929;SDS011;43305;52.186;5.598;2024-01-07T11:16:00;5.15;;;2.42;;
18929;SDS011;43305;52.186;5.598;2024-01-07T11:18:28;7.18;;;3.65;;
18929;SDS011;43305;52.186;5.598;2024-01-07T11:20:59;5.57;;;2.30;;
18929;SDS011;43305;52.186;5.598;2024-01-07T11:23:28;7.40;;;3.70;;
18929;SDS011;43305;52.186;5.598;2024-01-07T11:25:59;6.97;;;2.55;;
18929;SDS011;43305;52.186;5.598;2024-01-07T11:28:42;4.60;;;2.53;;
18929;SDS011;43305;52.186;5.598;2024-01-07T11:31:13;4.25;;;2.35;;
18929;SDS011;43305;52.186;5.598;2024-01-07T11:33:47;6.28;;;3.10;;
18929;SDS011;43305;52.186;5.598;2024-01-07T11:36:15;8.48;;;3.55;;
18929;SDS011;43305;52.186;5.598;2024-01-07T11:38:42;3.58;;;2.20;;
18929;SDS011;43305;52.186;5.598;2024-01-07T11:41:12;4.50;;;2.30;;
18929;SDS011;43305;52.186;5.598;2024-01-07T11:43:52;5.35;;;2.40;;
18929;SDS011;43305;52.186;5.598;2024-01-07T11:46:20;6.55;;;2.45;;
18929;SDS011;43305;52.186;5.598;2024-01-07T11:48:47;5.20;;;2.65;;
18929;SDS011;43305;52.186;5.598;2024-01-07T11:51:14;4.97;;;2.20;;
18929;SDS011;43305;52.186;5.598;2024-01-07T11:53:42;2.78;;;1.60;;
18929;SDS011;43305;52.186;5.598;2024-01-07T11:56:13;4.95;;;2.38;;
18929;SDS011;43305;52.186;5.598;2024-01-07T11:58:40;5.93;;;2.58;;
18929;SDS011;43305;52.186;5.598;2024-01-07T12:01:07;6.60;;;2.47;;
18929;SDS011;43305;52.186;5.598;2024-01-07T12:03:34;5.47;;;2.20;;
18929;SDS011;43305;52.186;5.598;2024-01-07T12:06:01;6.45;;;3.10;;
18929;SDS011;43305;52.186;5.598;2024-01-07T12:08:29;4.20;;;1.98;;
18929;SDS011;43305;52.186;5.598;2024-01-07T12:10:59;4.55;;;1.95;;
18929;SDS011;43305;52.186;5.598;2024-01-07T12:13:30;9.02;;;4.93;;
18929;SDS011;43305;52.186;5.598;2024-01-07T12:16:03;4.70;;;2.60;;
18929;SDS011;43305;52.186;5.598;2024-01-07T12:18:35;3.58;;;2.03;;
18929;SDS011;43305;52.186;5.598;2024-01-07T12:21:03;5.20;;;2.53;;
18929;SDS011;43305;52.186;5.598;2024-01-07T12:23:33;8.80;;;3.35;;
18929;SDS011;43305;52.186;5.598;2024-01-07T12:26:07;5.55;;;2.30;;
18929;SDS011;43305;52.186;5.598;2024-01-07T12:28:36;5.30;;;3.05;;
18929;SDS011;43305;52.186;5.598;2024-01-07T12:31:04;2.85;;;1.50;;
18929;SDS011;43305;52.186;5.598;2024-01-07T12:33:31;5.70;;;1.95;;
18929;SDS011;43305;52.186;5.598;2024-01-07T12:35:59;24.80;;;13.35;;
18929;SDS011;43305;52.186;5.598;2024-01-07T12:38:26;7.53;;;2.75;;
18929;SDS011;43305;52.186;5.598;2024-01-07T12:40:53;5.50;;;1.88;;
18929;SDS011;43305;52.186;5.598;2024-01-07T12:43:21;2.70;;;1.50;;
18929;SDS011;43305;52.186;5.598;2024-01-07T12:45:50;4.13;;;2.00;;
18929;SDS011;43305;52.186;5.598;2024-01-07T12:48:16;4.50;;;1.50;;
18929;SDS011;43305;52.186;5.598;2024-01-07T12:50:43;5.78;;;2.65;;
18929;SDS011;43305;52.186;5.598;2024-01-07T12:53:10;8.00;;;2.50;;
18929;SDS011;43305;52.186;5.598;2024-01-07T12:55:37;2.88;;;1.90;;
18929;SDS011;43305;52.186;5.598;2024-01-07T12:58:04;3.22;;;1.92;;
18929;SDS011;43305;52.186;5.598;2024-01-07T13:00:31;5.45;;;2.20;;
18929;SDS011;43305;52.186;5.598;2024-01-07T13:03:01;6.35;;;3.33;;
18929;SDS011;43305;52.186;5.598;2024-01-07T13:05:29;4.85;;;2.20;;
18929;SDS011;43305;52.186;5.598;2024-01-07T13:07:58;6.25;;;3.53;;
18929;SDS011;43305;52.186;5.598;2024-01-07T13:10:28;5.88;;;2.38;;
18929;SDS011;43305;52.186;5.598;2024-01-07T13:12:55;4.50;;;1.77;;
18929;SDS011;43305;52.186;5.598;2024-01-07T13:15:22;2.50;;;1.60;;
18929;SDS011;43305;52.186;5.598;2024-01-07T13:17:49;6.22;;;3.28;;
18929;SDS011;43305;52.186;5.598;2024-01-07T13:20:17;4.28;;;2.47;;
18929;SDS011;43305;52.186;5.598;2024-01-07T13:22:45;4.45;;;2.63;;
18929;SDS011;43305;52.186;5.598;2024-01-07T13:25:12;3.80;;;1.90;;
18929;SDS011;43305;52.186;5.598;2024-01-07T13:27:39;2.78;;;1.52;;
18929;SDS011;43305;52.186;5.598;2024-01-07T13:30:07;3.55;;;1.90;;
18929;SDS011;43305;52.186;5.598;2024-01-07T13:32:35;3.78;;;2.10;;
18929;SDS011;43305;52.186;5.598;2024-01-07T13:35:02;2.83;;;1.60;;
18929;SDS011;43305;52.186;5.598;2024-01-07T13:37:32;4.47;;;2.10;;
18929;SDS011;43305;52.186;5.598;2024-01-07T13:39:59;5.40;;;2.78;;
18929;SDS011;43305;52.186;5.598;2024-01-07T13:42:29;3.92;;;1.75;;
18929;SDS011;43305;52.186;5.598;2024-01-07T13:44:58;4.43;;;1.70;;
18929;SDS011;43305;52.186;5.598;2024-01-07T13:47:25;6.30;;;2.33;;
18929;SDS011;43305;52.186;5.598;2024-01-07T13:49:53;3.30;;;2.03;;
18929;SDS011;43305;52.186;5.598;2024-01-07T13:52:19;4.30;;;2.00;;
18929;SDS011;43305;52.186;5.598;2024-01-07T13:54:48;4.47;;;1.98;;
18929;SDS011;43305;52.186;5.598;2024-01-07T13:57:14;5.90;;;2.83;;
18929;SDS011;43305;52.186;5.598;2024-01-07T13:59:41;9.77;;;3.75;;
18929;SDS011;43305;52.186;5.598;2024-01-07T14:02:11;4.00;;;2.17;;
18929;SDS011;43305;52.186;5.598;2024-01-07T14:04:38;3.40;;;1.70;;
18929;SDS011;43305;52.186;5.598;2024-01-07T14:07:04;2.55;;;1.40;;
18929;SDS011;43305;52.186;5.598;2024-01-07T14:09:31;3.17;;;1.42;;
18929;SDS011;43305;52.186;5.598;2024-01-07T14:11:59;3.55;;;1.88;;
18929;SDS011;43305;52.186;5.598;2024-01-07T14:14:29;4.22;;;1.92;;
18929;SDS011;43305;52.186;5.598;2024-01-07T14:17:02;4.10;;;2.03;;
18929;SDS011;43305;52.186;5.598;2024-01-07T14:19:29;4.47;;;1.50;;
18929;SDS011;43305;52.186;5.598;2024-01-07T14:21:59;3.20;;;1.55;;
18929;SDS011;43305;52.186;5.598;2024-01-07T14:24:29;7.18;;;2.17;;
18929;SDS011;43305;52.186;5.598;2024-01-07T14:26:56;8.13;;;2.30;;
18929;SDS011;43305;52.186;5.598;2024-01-07T14:29:24;4.53;;;1.92;;
18929;SDS011;43305;52.186;5.598;2024-01-07T14:31:51;4.10;;;1.92;;
18929;SDS011;43305;52.186;5.598;2024-01-07T14:34:18;3.97;;;1.92;;